Time;durP1;ratioP1;P1;durP2;ratioP2;P2;SDS_P1;SDS_P2;PMS_P1;PMS_P2;Temp;Humidity;BMP_temperature;BMP_pressure;BME280_temperature;BME280_humidity;BME280_pressure;Samples;Min_cycle;Max_cycle;Signal;HPM_P1;HPM_P2
2023/02/07 00:01:24;;;;;;;12.05;5.32;;;;;;;-2.31;55.66;104139.69;4963732;28;20052;-78
2023/02/07 00:03:55;;;;;;;10.13;4.95;;;;;;;-2.26;55.53;104140.88;4974149;28;20072;-79
2023/02/07 00:06:32;;;;;;;20.38;5.97;;;;;;;-2.33;55.11;104138.69;4971331;28;20101;-81
2023/02/07 00:09:00;;;;;;;12.05;5.20;;;;;;;-2.38;55.33;104141.72;4960744;28;20043;-79
2023/02/07 00:11:26;;;;;;;14.38;5.40;;;;;;;-2.39;55.42;104134.84;4978992;28;20066;-77
2023/02/07 00:13:54;;;;;;;16.10;5.63;;;;;;;-2.45;55.50;104132.75;4960244;28;20114;-77
2023/02/07 00:16:20;;;;;;;13.57;5.55;;;;;;;-2.45;55.68;104138.78;4973100;28;20626;-78
2023/02/07 00:18:46;;;;;;;12.75;4.85;;;;;;;-2.43;55.45;104142.31;4968953;28;20089;-78
2023/02/07 00:21:16;;;;;;;17.83;6.65;;;;;;;-2.29;55.29;104140.69;4956185;28;20029;-76
2023/02/07 00:23:42;;;;;;;14.73;5.80;;;;;;;-2.15;54.93;104148.38;4977747;28;20038;-77
2023/02/07 00:26:09;;;;;;;16.10;5.78;;;;;;;-2.33;55.09;104141.25;4974456;28;20035;-76
2023/02/07 00:28:35;;;;;;;12.40;5.35;;;;;;;-2.43;55.70;104137.19;4972150;28;20077;-76
2023/02/07 00:31:11;;;;;;;13.27;6.15;;;;;;;-2.44;55.57;104144.78;4962001;28;20069;-77
2023/02/07 00:33:39;;;;;;;11.68;5.82;;;;;;;-2.55;55.62;104150.88;4967983;28;20057;-78
2023/02/07 00:36:07;;;;;;;15.48;6.88;;;;;;;-2.41;55.56;104137.28;5008516;28;20038;-81
2023/02/07 00:38:33;;;;;;;16.55;6.00;;;;;;;-2.40;55.44;104131.41;4974933;28;20070;-80
2023/02/07 00:41:00;;;;;;;18.85;7.55;;;;;;;-2.41;55.47;104144.97;4981384;28;20077;-83
2023/02/07 00:43:26;;;;;;;13.75;6.07;;;;;;;-2.30;55.37;104141.44;4993488;28;20555;-80
2023/02/07 00:45:52;;;;;;;12.23;6.57;;;;;;;-2.33;55.06;104135.25;4966939;28;20038;-75
2023/02/07 00:48:17;;;;;;;11.85;6.68;;;;;;;-2.30;54.98;104138.88;4970979;28;20054;-74
2023/02/07 00:50:44;;;;;;;17.25;7.15;;;;;;;-2.41;55.02;104142.41;4999019;28;20038;-77
2023/02/07 00:53:09;;;;;;;14.10;6.85;;;;;;;-2.44;55.30;104142.22;4972826;28;20427;-74
2023/02/07 00:55:35;;;;;;;17.60;7.40;;;;;;;-2.52;55.73;104135.69;4948072;28;20034;-72
2023/02/07 00:58:01;;;;;;;20.55;7.18;;;;;;;-2.51;55.63;104137.47;4967737;28;20070;-72
2023/02/07 01:00:26;;;;;;;21.40;7.80;;;;;;;-2.48;55.56;104147.91;4967178;28;20677;-73
2023/02/07 01:02:51;;;;;;;15.88;7.85;;;;;;;-2.52;55.40;104145.94;4965713;28;20042;-73
2023/02/07 01:05:18;;;;;;;16.42;7.00;;;;;;;-2.54;55.44;104139.81;4964559;28;20031;-73
2023/02/07 01:07:44;;;;;;;16.40;7.47;;;;;;;-2.53;55.71;104133.94;4964045;28;20056;-72
2023/02/07 01:10:10;;;;;;;23.08;7.05;;;;;;;-2.56;55.92;104138.81;4967686;28;20058;-74
2023/02/07 01:12:35;;;;;;;19.75;7.18;;;;;;;-2.43;55.20;104132.06;4963451;28;20226;-73
2023/02/07 01:15:02;;;;;;;17.42;6.05;;;;;;;-2.44;55.47;104134.53;4972479;28;20121;-73
2023/02/07 01:17:28;;;;;;;20.85;8.35;;;;;;;-2.44;55.52;104129.41;4978916;28;20062;-74
2023/02/07 01:19:58;;;;;;;17.35;7.47;;;;;;;-2.50;55.53;104129.00;4972834;28;20392;-74
2023/02/07 01:22:24;;;;;;;11.05;5.93;;;;;;;-2.50;55.86;104118.75;4968226;28;20080;-80
2023/02/07 01:24:53;;;;;;;18.02;6.90;;;;;;;-2.48;55.87;104112.94;4983101;28;20073;-78
2023/02/07 01:27:23;;;;;;;17.45;7.03;;;;;;;-2.47;55.78;104114.72;4985640;28;20046;-74
2023/02/07 01:29:48;;;;;;;18.63;6.72;;;;;;;-2.39;55.39;104111.78;4974933;28;20045;-74
2023/02/07 01:32:14;;;;;;;18.05;7.15;;;;;;;-2.44;55.25;104117.47;4970462;28;20415;-74
2023/02/07 01:34:40;;;;;;;16.38;7.53;;;;;;;-2.39;55.54;104117.78;4966850;28;20070;-75
2023/02/07 01:37:05;;;;;;;17.52;6.30;;;;;;;-2.35;55.21;104108.63;4949595;28;20112;-74
2023/02/07 01:39:31;;;;;;;16.55;6.88;;;;;;;-2.35;55.04;104106.97;4965678;28;20031;-75
2023/02/07 01:41:56;;;;;;;21.60;7.63;;;;;;;-2.37;55.07;104111.09;4966508;28;20510;-75
2023/02/07 01:44:22;;;;;;;13.35;6.72;;;;;;;-2.36;55.34;104117.09;4963941;28;20038;-75
2023/02/07 01:46:49;;;;;;;15.35;7.32;;;;;;;-2.42;55.41;104120.16;4955519;28;20077;-74
2023/02/07 01:49:20;;;;;;;13.60;6.13;;;;;;;-2.33;55.24;104107.94;4973410;28;20054;-75
2023/02/07 01:51:53;;;;;;;16.48;8.48;;;;;;;-2.31;55.35;104115.72;4963167;28;20963;-75
2023/02/07 01:54:21;;;;;;;22.20;6.93;;;;;;;-2.47;55.40;104109.59;4963058;28;20050;-77
2023/02/07 01:56:59;;;;;;;19.20;7.00;;;;;;;-2.36;55.39;104122.22;4966188;28;20074;-75
2023/02/07 01:59:26;;;;;;;18.75;7.05;;;;;;;-2.39;55.27;104122.91;4996279;28;20101;-75
2023/02/07 02:01:53;;;;;;;20.90;6.97;;;;;;;-2.39;55.32;104106.66;4951704;28;20031;-76
2023/02/07 02:04:18;;;;;;;19.13;7.65;;;;;;;-2.39;55.17;104112.66;4966631;28;20398;-73
2023/02/07 02:06:45;;;;;;;11.90;6.43;;;;;;;-2.46;55.06;104110.50;4964567;28;20042;-72
2023/02/07 02:09:13;;;;;;;15.82;7.47;;;;;;;-2.65;55.67;104113.47;4967609;28;20125;-77
2023/02/07 02:12:00;;;;;;;14.25;6.90;;;;;;;-2.42;54.99;104108.22;4963438;28;20039;-76
2023/02/07 02:14:53;;;;;;;14.00;6.55;;;;;;;-2.39;55.09;104106.66;4952775;28;20046;-72
2023/02/07 02:17:20;;;;;;;13.65;6.15;;;;;;;-2.42;54.94;104112.47;4953618;28;20061;-75
2023/02/07 02:20:22;;;;;;;18.35;7.50;;;;;;;-2.51;55.54;104111.88;4970194;28;20434;-75
2023/02/07 02:22:54;;;;;;;20.85;7.97;;;;;;;-2.47;54.88;104107.03;4993167;28;20108;-73
2023/02/07 02:25:38;;;;;;;13.68;6.28;;;;;;;-2.50;55.02;104108.50;4992835;28;20046;-73
2023/02/07 02:28:33;;;;;;;12.07;6.57;;;;;;;-2.54;54.55;104101.41;4965640;28;20058;-77
2023/02/07 02:31:01;;;;;;;11.50;6.53;;;;;;;-2.58;55.02;104114.78;4968828;28;20043;-74
2023/02/07 02:34:00;;;;;;;14.77;7.53;;;;;;;-2.64;54.89;104116.16;4969259;28;20066;-75
2023/02/07 02:36:50;;;;;;;12.80;5.82;;;;;;;-2.69;54.74;104120.09;4970501;28;20034;-75
2023/02/07 02:39:50;;;;;;;13.25;6.10;;;;;;;-2.52;54.53;104105.84;4960932;28;20125;-75
2023/02/07 02:42:40;;;;;;;16.52;6.45;;;;;;;-2.55;54.69;104109.88;4994895;28;20047;-74
2023/02/07 02:45:17;;;;;;;18.08;7.28;;;;;;;-2.69;54.81;104114.09;4965475;28;20060;-76
2023/02/07 02:47:47;;;;;;;12.35;7.00;;;;;;;-2.72;54.88;104096.81;4965307;28;20078;-75
2023/02/07 02:50:17;;;;;;;13.45;6.93;;;;;;;-2.72;54.66;104101.94;4967206;28;20129;-75
2023/02/07 02:52:42;;;;;;;16.27;9.23;;;;;;;-2.76;54.26;104084.63;4958983;28;20322;-74
2023/02/07 02:55:09;;;;;;;14.40;7.50;;;;;;;-2.86;54.60;104095.03;4970145;28;20261;-75
2023/02/07 02:57:51;;;;;;;16.70;7.75;;;;;;;-2.92;54.66;104099.72;4953833;28;20054;-75
2023/02/07 03:00:41;;;;;;;15.65;7.95;;;;;;;-2.91;54.90;104110.06;4968761;28;20056;-76
2023/02/07 03:03:14;;;;;;;19.67;7.07;;;;;;;-2.86;54.88;104102.69;4962929;28;20141;-75
2023/02/07 03:06:11;;;;;;;10.70;6.50;;;;;;;-2.84;54.50;104107.13;4963623;28;20503;-75
2023/02/07 03:08:40;;;;;;;15.25;6.32;;;;;;;-2.89;54.39;104105.06;4990332;28;20157;-74
2023/02/07 03:11:14;;;;;;;17.77;7.78;;;;;;;-2.85;54.08;104099.34;4980386;28;20037;-73
2023/02/07 03:13:56;;;;;;;17.23;7.15;;;;;;;-2.91;54.31;104097.28;4965756;28;20581;-75
2023/02/07 03:16:34;;;;;;;12.93;7.13;;;;;;;-2.89;54.18;104112.75;4952252;28;20557;-76
2023/02/07 03:19:10;;;;;;;17.67;7.38;;;;;;;-2.92;53.96;104120.19;4977965;28;20094;-74
2023/02/07 03:21:42;;;;;;;15.80;7.05;;;;;;;-2.89;54.11;104122.97;5009733;28;20034;-76
2023/02/07 03:24:15;;;;;;;14.05;7.80;;;;;;;-3.02;54.08;104115.25;4967598;28;20531;-74
2023/02/07 03:26:43;;;;;;;14.90;5.85;;;;;;;-3.01;53.88;104112.78;4972306;28;20031;-74
2023/02/07 03:29:10;;;;;;;12.40;6.38;;;;;;;-3.11;53.95;104111.25;4978536;28;20030;-72
2023/02/07 03:31:39;;;;;;;19.65;8.10;;;;;;;-3.08;53.62;104119.13;4960559;28;20030;-73
2023/02/07 03:34:10;;;;;;;13.60;5.90;;;;;;;-3.24;53.70;104118.00;4976259;28;20663;-72
2023/02/07 03:36:48;;;;;;;11.45;6.35;;;;;;;-3.37;53.89;104111.13;4964207;28;20129;-76
2023/02/07 03:39:14;;;;;;;15.60;6.25;;;;;;;-3.46;54.13;104106.25;4965651;28;20047;-75
2023/02/07 03:41:53;;;;;;;14.13;7.03;;;;;;;-3.49;54.30;104106.06;4963356;28;20537;-74
2023/02/07 03:44:22;;;;;;;12.10;5.68;;;;;;;-3.50;54.13;104106.81;4962319;28;20069;-75
2023/02/07 03:46:49;;;;;;;14.45;6.90;;;;;;;-3.50;54.24;104105.13;4960215;28;20195;-76
2023/02/07 03:49:16;;;;;;;18.08;6.80;;;;;;;-3.60;54.20;104109.53;4963434;28;20050;-75
2023/02/07 03:51:46;;;;;;;15.82;7.20;;;;;;;-3.57;54.19;104102.94;4961967;28;20050;-75
2023/02/07 03:54:12;;;;;;;16.83;8.70;;;;;;;-3.51;54.22;104110.16;4961329;28;20038;-75
2023/02/07 03:56:37;;;;;;;15.48;7.03;;;;;;;-3.48;54.09;104118.03;4961474;28;20045;-75
2023/02/07 03:59:03;;;;;;;15.68;7.00;;;;;;;-3.63;54.21;104116.94;4960707;28;20046;-72
2023/02/07 04:01:29;;;;;;;12.90;6.35;;;;;;;-3.69;54.33;104108.06;4960361;28;20041;-71
2023/02/07 04:03:55;;;;;;;15.30;7.32;;;;;;;-3.67;54.56;104105.63;4976082;28;20141;-69
2023/02/07 04:06:20;;;;;;;10.30;6.28;;;;;;;-3.65;54.26;104109.19;4967471;28;20039;-72
2023/02/07 04:08:46;;;;;;;14.68;6.93;;;;;;;-3.64;54.15;104105.84;4975259;28;20072;-77
2023/02/07 04:11:11;;;;;;;17.15;8.02;;;;;;;-3.69;54.07;104114.88;4971599;28;20050;-77
2023/02/07 04:13:37;;;;;;;14.57;7.20;;;;;;;-3.75;53.79;104127.19;4961362;28;20504;-74
2023/02/07 04:16:06;;;;;;;13.70;6.40;;;;;;;-3.78;53.87;104124.44;4961191;28;20439;-72
2023/02/07 04:18:32;;;;;;;18.17;6.95;;;;;;;-3.78;53.74;104127.88;4963072;28;20046;-75
2023/02/07 04:21:06;;;;;;;13.80;6.15;;;;;;;-3.71;53.42;104118.97;4964399;28;20046;-77
2023/02/07 04:23:32;;;;;;;11.27;6.88;;;;;;;-3.71;53.29;104124.09;4961167;28;20181;-77
2023/02/07 04:25:58;;;;;;;16.33;6.97;;;;;;;-3.74;53.57;104127.31;4981236;28;20038;-78
2023/02/07 04:28:24;;;;;;;11.43;5.60;;;;;;;-3.84;53.33;104117.19;4977041;28;20046;-77
2023/02/07 04:30:50;;;;;;;14.30;6.57;;;;;;;-3.90;53.32;104122.78;4969565;28;20044;-77
2023/02/07 04:33:15;;;;;;;14.32;6.97;;;;;;;-3.87;53.22;104132.34;4963354;28;20555;-79
2023/02/07 04:35:41;;;;;;;13.27;7.22;;;;;;;-4.09;53.44;104137.53;4971822;28;20054;-75
2023/02/07 04:38:06;;;;;;;13.30;6.50;;;;;;;-4.07;53.68;104127.44;4966207;28;20062;-73
2023/02/07 04:40:32;;;;;;;13.00;6.38;;;;;;;-4.09;53.81;104133.31;4946626;28;20066;-73
2023/02/07 04:42:57;;;;;;;14.10;6.60;;;;;;;-4.13;53.69;104138.09;4962069;28;20183;-80
2023/02/07 04:45:25;;;;;;;12.65;6.90;;;;;;;-4.08;53.52;104136.75;4975667;28;20149;-79
2023/02/07 04:47:50;;;;;;;13.23;7.28;;;;;;;-4.15;53.38;104134.53;4973259;28;20124;-80
2023/02/07 04:50:16;;;;;;;20.67;9.07;;;;;;;-4.27;53.94;104144.75;4974659;28;20038;-81
2023/02/07 04:52:42;;;;;;;25.63;8.43;;;;;;;-4.26;53.62;104141.41;5005857;28;20038;-81
2023/02/07 04:55:09;;;;;;;16.98;8.23;;;;;;;-4.24;53.50;104137.28;4963016;28;20672;-77
2023/02/07 04:57:35;;;;;;;17.88;8.38;;;;;;;-4.24;53.75;104131.31;4966879;28;20046;-77
2023/02/07 05:00:00;;;;;;;17.98;8.93;;;;;;;-4.10;53.50;104122.97;4968149;28;20097;-78
2023/02/07 05:02:26;;;;;;;17.02;8.90;;;;;;;-4.14;53.47;104133.78;4966923;28;20054;-75
2023/02/07 05:04:52;;;;;;;19.02;9.35;;;;;;;-4.28;53.74;104131.84;4979377;28;20038;-77
2023/02/07 05:07:17;;;;;;;18.67;8.15;;;;;;;-4.17;54.25;104130.97;4969676;28;20043;-78
2023/02/07 05:09:43;;;;;;;13.52;7.95;;;;;;;-4.25;53.87;104127.88;4998045;28;20040;-76
2023/02/07 05:12:08;;;;;;;22.45;8.25;;;;;;;-4.27;54.17;104118.31;4967574;28;20050;-76
2023/02/07 05:14:34;;;;;;;17.88;8.80;;;;;;;-4.31;54.53;104115.53;4961133;28;20074;-74
2023/02/07 05:16:59;;;;;;;17.65;7.60;;;;;;;-4.25;54.10;104107.44;4967905;28;20027;-78
2023/02/07 05:19:25;;;;;;;22.13;7.53;;;;;;;-4.14;53.74;104110.78;4964164;28;20772;-71
2023/02/07 05:21:50;;;;;;;15.00;7.70;;;;;;;-4.20;53.55;104111.19;4965830;28;20532;-69
2023/02/07 05:24:16;;;;;;;15.90;6.80;;;;;;;-4.11;53.32;104100.78;4962710;28;20050;-76
2023/02/07 05:26:41;;;;;;;16.75;8.57;;;;;;;-4.32;53.39;104100.97;4961283;28;20089;-71
2023/02/07 05:29:07;;;;;;;15.93;6.15;;;;;;;-4.31;53.46;104107.84;4964838;28;20131;-71
2023/02/07 05:34:17;;;;;;;16.15;6.68;;;;;;;-4.35;53.30;104105.84;4961948;28;20050;-76
2023/02/07 05:36:42;;;;;;;18.30;7.88;;;;;;;-4.24;53.22;104103.22;4970345;28;20200;-74
2023/02/07 05:39:08;;;;;;;16.13;6.63;;;;;;;-4.35;53.48;104100.75;4967582;28;20097;-73
2023/02/07 05:41:33;;;;;;;16.73;7.45;;;;;;;-4.31;53.27;104091.66;4963281;28;20069;-74
2023/02/07 05:44:03;;;;;;;16.58;7.40;;;;;;;-4.31;53.25;104086.53;4950173;28;20463;-73
2023/02/07 05:46:28;;;;;;;13.05;6.35;;;;;;;-4.36;53.17;104093.88;4961891;28;20053;-73
2023/02/07 05:48:53;;;;;;;14.18;7.30;;;;;;;-4.54;53.34;104102.72;4966144;28;20495;-75
2023/02/07 05:51:19;;;;;;;13.38;6.47;;;;;;;-4.58;53.63;104090.50;4961588;28;20053;-77
2023/02/07 05:53:44;;;;;;;12.20;6.55;;;;;;;-4.64;53.74;104097.69;4962048;28;20053;-74
2023/02/07 05:56:10;;;;;;;18.38;6.55;;;;;;;-4.47;53.50;104111.72;4965243;28;20023;-71
2023/02/07 05:58:39;;;;;;;18.60;9.10;;;;;;;-4.46;53.70;104106.72;4968570;28;20576;-73
2023/02/07 06:01:04;;;;;;;12.85;6.13;;;;;;;-4.43;53.43;104106.06;4965677;28;20048;-72
2023/02/07 06:03:29;;;;;;;16.63;7.22;;;;;;;-4.51;53.50;104103.81;4961994;28;20050;-73
2023/02/07 06:05:55;;;;;;;13.45;6.80;;;;;;;-4.44;53.37;104110.28;4965581;28;20092;-73
2023/02/07 06:08:21;;;;;;;15.52;7.75;;;;;;;-4.54;53.25;104108.72;4963329;28;20086;-73
2023/02/07 06:10:49;;;;;;;16.00;7.97;;;;;;;-4.60;53.49;104107.38;4952376;28;20046;-73
2023/02/07 06:13:15;;;;;;;14.38;7.30;;;;;;;-4.60;53.66;104097.16;4965949;28;20039;-72
2023/02/07 06:15:40;;;;;;;19.88;8.00;;;;;;;-4.67;54.02;104123.00;4991748;28;20183;-73
2023/02/07 06:18:06;;;;;;;16.30;7.97;;;;;;;-4.64;54.18;104115.56;4963515;28;20647;-71
2023/02/07 06:20:32;;;;;;;15.75;7.13;;;;;;;-4.54;54.34;104128.25;4963616;28;20038;-71
2023/02/07 06:22:58;;;;;;;14.25;6.93;;;;;;;-4.52;54.15;104113.94;4967547;28;20058;-76
2023/02/07 06:25:24;;;;;;;15.82;7.97;;;;;;;-4.47;54.01;104115.16;4963387;28;20146;-75
2023/02/07 06:27:49;;;;;;;17.08;7.50;;;;;;;-4.55;53.87;104109.47;4962189;28;20053;-75
2023/02/07 06:30:16;;;;;;;17.65;8.07;;;;;;;-4.58;54.12;104105.81;4954843;28;20030;-76
2023/02/07 06:32:41;;;;;;;19.00;8.20;;;;;;;-4.58;53.85;104110.94;4960455;28;20054;-75
2023/02/07 06:35:08;;;;;;;16.98;8.15;;;;;;;-4.45;54.00;104118.72;4967852;28;20039;-72
2023/02/07 06:37:34;;;;;;;16.77;7.65;;;;;;;-4.46;53.24;104109.28;4960044;28;20506;-74
2023/02/07 06:39:59;;;;;;;16.38;7.35;;;;;;;-4.54;53.56;104113.81;4962579;28;20030;-75
2023/02/07 06:42:25;;;;;;;16.48;7.80;;;;;;;-4.73;53.62;104106.44;4960369;28;20125;-74
2023/02/07 06:44:50;;;;;;;21.05;10.00;;;;;;;-4.73;54.52;104114.09;4961789;28;20156;-76
2023/02/07 06:47:18;;;;;;;21.95;8.30;;;;;;;-4.63;54.21;104117.38;4965118;28;20129;-75
2023/02/07 06:49:44;;;;;;;19.65;8.98;;;;;;;-4.61;54.21;104123.44;4992434;28;20192;-76
2023/02/07 06:52:11;;;;;;;20.83;8.80;;;;;;;-4.59;54.01;104119.34;4963201;28;20769;-76
2023/02/07 06:54:37;;;;;;;17.98;7.53;;;;;;;-4.62;54.65;104127.66;4962232;28;20080;-77
2023/02/07 06:57:03;;;;;;;21.52;9.32;;;;;;;-4.57;54.52;104128.00;4995117;28;20049;-78
2023/02/07 06:59:29;;;;;;;17.73;8.85;;;;;;;-4.50;54.68;104130.25;4967889;28;20125;-76
2023/02/07 07:01:55;;;;;;;25.10;10.95;;;;;;;-4.45;54.75;104133.16;4963921;28;20042;-77
2023/02/07 07:04:20;;;;;;;15.63;8.50;;;;;;;-4.36;54.62;104133.84;4963226;28;20038;-77
2023/02/07 07:06:46;;;;;;;20.10;8.95;;;;;;;-4.32;54.50;104146.06;4966309;28;20392;-77
2023/02/07 07:09:12;;;;;;;15.73;8.15;;;;;;;-4.32;54.49;104141.84;4968461;28;20030;-80
2023/02/07 07:11:41;;;;;;;20.63;10.00;;;;;;;-4.25;54.30;104134.66;4963528;28;20197;-76
2023/02/07 07:14:09;;;;;;;20.83;9.18;;;;;;;-4.30;54.18;104135.19;4964708;28;20064;-75
2023/02/07 07:16:34;;;;;;;24.98;9.50;;;;;;;-4.28;54.43;104136.94;4958339;28;22709;-73
2023/02/07 07:19:00;;;;;;;19.42;8.98;;;;;;;-4.28;54.41;104131.84;4959988;28;20507;-75
2023/02/07 07:21:27;;;;;;;20.33;9.80;;;;;;;-4.20;54.47;104130.75;4963211;28;20696;-76
2023/02/07 07:23:54;;;;;;;20.08;9.63;;;;;;;-4.16;54.38;104140.44;4979586;28;20199;-77
2023/02/07 07:26:19;;;;;;;18.30;7.95;;;;;;;-4.16;54.37;104127.66;4975269;28;20061;-76
2023/02/07 07:28:45;;;;;;;19.55;9.82;;;;;;;-4.13;54.19;104123.63;4964017;28;20121;-74
2023/02/07 07:31:12;;;;;;;16.83;8.20;;;;;;;-4.11;54.48;104127.19;4964627;28;20041;-78
2023/02/07 07:33:37;;;;;;;20.17;9.52;;;;;;;-4.07;54.42;104130.88;4962954;28;20050;-77
2023/02/07 07:36:03;;;;;;;21.02;9.05;;;;;;;-4.07;54.39;104118.09;4962659;28;20034;-76
2023/02/07 07:38:29;;;;;;;27.67;10.90;;;;;;;-4.08;54.69;104116.31;4968880;28;20045;-76
2023/02/07 07:40:55;;;;;;;20.02;10.27;;;;;;;-3.98;54.62;104129.00;4978651;28;20038;-76
2023/02/07 07:43:20;;;;;;;21.05;10.20;;;;;;;-3.86;54.80;104117.88;4969904;28;20058;-75
2023/02/07 07:45:54;;;;;;;21.27;8.68;;;;;;;-3.79;54.45;104109.88;4973713;28;20061;-76
2023/02/07 07:48:21;;;;;;;18.30;9.48;;;;;;;-3.74;54.23;104109.44;4973364;28;20062;-76
2023/02/07 07:50:48;;;;;;;26.50;9.32;;;;;;;-3.65;54.77;104111.75;4962493;28;20051;-75
2023/02/07 07:53:14;;;;;;;23.52;9.55;;;;;;;-3.47;54.35;104107.94;4965475;28;20053;-75
2023/02/07 07:55:40;;;;;;;22.02;9.80;;;;;;;-3.24;53.58;104103.53;4951413;28;20037;-76
2023/02/07 07:58:06;;;;;;;22.95;10.55;;;;;;;-3.03;53.87;104108.34;4970525;28;20082;-75
2023/02/07 08:00:32;;;;;;;20.20;9.90;;;;;;;-2.30;53.42;104099.56;4963655;28;20125;-75
2023/02/07 08:02:59;;;;;;;22.10;10.38;;;;;;;-1.57;50.77;104089.69;4962779;28;20264;-76
2023/02/07 08:05:24;;;;;;;21.10;10.40;;;;;;;-0.99;49.90;104089.00;4962010;28;20195;-77
2023/02/07 08:07:50;;;;;;;24.63;9.15;;;;;;;-0.23;47.83;104080.53;4996707;28;20048;-76
2023/02/07 08:10:16;;;;;;;21.77;8.88;;;;;;;0.82;45.84;104081.94;4963334;28;20031;-75
2023/02/07 08:12:43;;;;;;;18.05;8.40;;;;;;;1.93;43.36;104084.06;4964363;28;20144;-75
2023/02/07 08:15:09;;;;;;;14.38;9.73;;;;;;;2.94;40.11;104074.00;4963615;28;20861;-75
2023/02/07 08:17:36;;;;;;;13.07;6.95;;;;;;;3.43;37.71;104073.50;4991500;28;20093;-77
2023/02/07 08:20:02;;;;;;;14.48;6.70;;;;;;;3.76;37.54;104078.25;4968702;28;20424;-77
2023/02/07 08:22:27;;;;;;;11.75;6.63;;;;;;;4.15;36.08;104078.94;4974930;28;20047;-77
2023/02/07 08:24:52;;;;;;;15.35;7.88;;;;;;;4.30;35.66;104076.06;4960558;28;20288;-76
2023/02/07 08:27:18;;;;;;;16.15;7.45;;;;;;;4.71;34.75;104066.31;4962107;28;20043;-74
2023/02/07 08:29:44;;;;;;;11.75;7.28;;;;;;;5.05;34.54;104070.13;4962664;28;20030;-76
2023/02/07 08:32:10;;;;;;;14.77;6.70;;;;;;;5.13;35.20;104067.81;4979362;28;20117;-74
2023/02/07 08:34:36;;;;;;;10.25;6.82;;;;;;;5.79;32.38;104069.94;4984833;28;20035;-76
2023/02/07 08:37:06;;;;;;;10.13;5.85;;;;;;;5.78;33.39;104057.81;4955254;28;20061;-74
2023/02/07 08:39:33;;;;;;;9.70;6.20;;;;;;;5.79;33.79;104064.75;4965435;28;20035;-74
2023/02/07 08:41:59;;;;;;;14.00;7.57;;;;;;;5.96;33.38;104071.34;4945187;28;20035;-75
2023/02/07 08:44:25;;;;;;;11.88;5.35;;;;;;;6.28;32.23;104064.56;4956491;28;20030;-74
2023/02/07 08:46:50;;;;;;;8.43;5.63;;;;;;;5.97;32.63;104073.13;4950408;28;20058;-75
2023/02/07 08:49:15;;;;;;;10.45;5.30;;;;;;;6.04;33.59;104064.69;4957496;28;20445;-74
2023/02/07 08:51:41;;;;;;;12.95;7.15;;;;;;;6.65;31.21;104056.91;4958551;28;20129;-74
2023/02/07 08:54:07;;;;;;;11.85;6.50;;;;;;;6.85;31.62;104071.31;4964358;28;20137;-76
2023/02/07 08:56:33;;;;;;;17.38;6.05;;;;;;;6.23;32.88;104065.22;4962622;28;20027;-73
2023/02/07 08:58:58;;;;;;;11.35;5.82;;;;;;;6.33;32.39;104072.47;4967419;28;20088;-75
2023/02/07 09:01:24;;;;;;;9.88;5.88;;;;;;;6.63;31.99;104074.19;4962563;28;20392;-76
2023/02/07 09:03:50;;;;;;;10.68;6.28;;;;;;;6.30;33.21;104080.16;4960446;28;20128;-77
2023/02/07 09:06:15;;;;;;;9.25;5.55;;;;;;;6.20;33.05;104083.31;4962095;28;20388;-74
2023/02/07 09:08:43;;;;;;;12.27;5.65;;;;;;;5.76;33.95;104082.81;4964834;28;20078;-76
2023/02/07 09:11:08;;;;;;;8.15;5.28;;;;;;;5.57;34.90;104084.84;4970432;28;20034;-75
2023/02/07 09:13:34;;;;;;;10.43;6.00;;;;;;;5.34;33.80;104086.66;4965117;28;20058;-75
2023/02/07 09:15:59;;;;;;;10.65;5.60;;;;;;;4.84;34.75;104093.56;4969045;28;20030;-75
2023/02/07 09:18:25;;;;;;;9.93;5.80;;;;;;;4.82;36.10;104101.28;4984247;28;20486;-76
2023/02/07 09:20:51;;;;;;;10.70;5.82;;;;;;;4.63;36.49;104104.91;4968136;28;20073;-77
2023/02/07 09:23:17;;;;;;;9.38;6.97;;;;;;;4.39;35.81;104110.06;4968980;28;20046;-75
2023/02/07 09:25:44;;;;;;;10.60;5.28;;;;;;;4.49;35.61;104100.91;4961855;28;20113;-76
2023/02/07 09:28:09;;;;;;;9.27;5.45;;;;;;;4.51;35.60;104106.16;4961902;28;20061;-77
2023/02/07 09:30:35;;;;;;;11.32;5.85;;;;;;;4.49;36.16;104102.63;4961383;28;20253;-76
2023/02/07 09:33:01;;;;;;;13.02;5.75;;;;;;;5.24;34.73;104103.63;4961623;28;20062;-75
2023/02/07 09:35:26;;;;;;;7.90;5.35;;;;;;;5.18;35.15;104100.81;4961461;28;20034;-76
2023/02/07 09:37:53;;;;;;;10.13;5.70;;;;;;;5.65;35.10;104114.50;4965949;28;20570;-75
2023/02/07 09:40:19;;;;;;;8.20;5.10;;;;;;;5.48;34.38;104105.31;4962950;28;21100;-76
2023/02/07 09:43:12;;;;;;;6.45;4.00;;;;;;;5.63;34.15;104108.38;4965872;28;20158;-75
2023/02/07 09:45:44;;;;;;;8.13;5.32;;;;;;;5.82;34.54;104106.38;4961325;28;20061;-75
2023/02/07 09:48:20;;;;;;;7.57;5.03;;;;;;;5.92;33.88;104100.63;4968184;28;20052;-74
2023/02/07 09:50:58;;;;;;;7.88;5.03;;;;;;;6.28;33.85;104107.81;4970130;28;20042;-76
2023/02/07 09:54:18;;;;;;;4.95;3.95;;;;;;;6.09;33.52;104114.16;4961363;28;20074;-76
2023/02/07 09:56:46;;;;;;;5.80;4.20;;;;;;;5.69;34.62;104115.50;4949067;28;20046;-75
2023/02/07 09:59:22;;;;;;;6.15;4.85;;;;;;;5.68;35.94;104118.91;4963134;28;20649;-76
2023/02/07 10:01:52;;;;;;;6.68;4.57;;;;;;;5.80;34.55;104111.53;4962529;28;20462;-77
2023/02/07 10:04:19;;;;;;;6.72;4.28;;;;;;;5.62;33.60;104116.13;4961449;28;20121;-76
2023/02/07 10:06:51;;;;;;;7.82;4.45;;;;;;;5.63;34.47;104126.53;4954079;28;20039;-76
2023/02/07 10:09:21;;;;;;;5.55;3.83;;;;;;;4.81;36.17;104124.53;4960327;28;20172;-76
2023/02/07 10:11:49;;;;;;;7.07;4.32;;;;;;;3.97;36.13;104127.41;4963399;28;20085;-75
2023/02/07 10:14:24;;;;;;;9.80;4.43;;;;;;;4.61;35.99;104129.88;4983585;28;20031;-75
2023/02/07 10:17:07;;;;;;;5.30;3.60;;;;;;;4.16;35.98;104126.41;4977361;28;20038;-76
2023/02/07 10:19:43;;;;;;;8.05;4.85;;;;;;;5.45;34.98;104132.00;4963695;28;20031;-77
2023/02/07 10:22:42;;;;;;;6.97;3.85;;;;;;;6.13;33.48;104125.50;4966873;28;20050;-76
2023/02/07 10:25:26;;;;;;;9.65;3.35;;;;;;;5.39;34.96;104120.53;4964202;28;20637;-76
2023/02/07 10:28:10;;;;;;;7.03;3.53;;;;;;;5.96;33.46;104115.47;4976736;28;20057;-75
2023/02/07 10:30:38;;;;;;;6.25;3.45;;;;;;;5.03;35.32;104115.84;4961092;28;20806;-75
2023/02/07 10:33:14;;;;;;;6.35;4.00;;;;;;;5.55;35.21;104117.63;4993812;28;20046;-77
2023/02/07 10:35:39;;;;;;;8.23;4.00;;;;;;;4.83;35.58;104112.50;4958927;28;20070;-76
2023/02/07 10:38:19;;;;;;;11.25;4.78;;;;;;;5.05;35.78;104109.00;4964736;28;20627;-76
2023/02/07 10:40:55;;;;;;;6.55;4.32;;;;;;;5.52;34.67;104108.84;4950585;28;20783;-75
2023/02/07 10:43:28;;;;;;;8.30;4.00;;;;;;;4.47;35.59;104112.06;4976470;28;20121;-76
2023/02/07 10:46:00;;;;;;;8.00;4.78;;;;;;;3.82;37.03;104109.56;4962249;28;20214;-76
2023/02/07 10:48:27;;;;;;;8.77;4.43;;;;;;;5.06;36.63;104108.19;4960426;28;20042;-76
2023/02/07 10:50:52;;;;;;;5.50;3.88;;;;;;;5.74;35.58;104108.72;4969795;28;20487;-76
2023/02/07 10:53:44;;;;;;;6.68;4.38;;;;;;;5.28;35.60;104114.09;4953069;28;20042;-76
2023/02/07 10:56:18;;;;;;;6.57;3.30;;;;;;;5.81;34.10;104109.78;4964464;28;20030;-76
2023/02/07 10:58:44;;;;;;;8.60;4.05;;;;;;;4.51;35.67;104104.44;4969327;28;20047;-76
2023/02/07 11:01:22;;;;;;;7.05;4.55;;;;;;;5.02;35.60;104101.13;4993374;28;20035;-76
2023/02/07 11:03:47;;;;;;;4.93;3.92;;;;;;;4.94;35.04;104098.25;4970545;28;20059;-76
2023/02/07 11:06:34;;;;;;;3.95;2.90;;;;;;;4.96;34.29;104098.31;4961141;28;20045;-75
2023/02/07 11:09:19;;;;;;;6.47;3.17;;;;;;;5.09;33.63;104100.50;4991137;28;20040;-77
2023/02/07 11:11:52;;;;;;;7.05;3.67;;;;;;;4.95;34.63;104102.63;4970938;28;20038;-75
2023/02/07 11:14:27;;;;;;;6.30;3.33;;;;;;;5.15;33.68;104099.84;4962039;28;20066;-76
2023/02/07 11:17:00;;;;;;;9.18;3.28;;;;;;;5.43;33.50;104093.88;4995963;28;20082;-76
2023/02/07 11:19:28;;;;;;;6.05;3.08;;;;;;;5.84;34.13;104084.84;4957633;28;20077;-76
2023/02/07 11:22:09;;;;;;;5.32;3.25;;;;;;;5.59;33.48;104083.19;4960159;28;20042;-75
2023/02/07 11:24:36;;;;;;;6.27;3.07;;;;;;;4.83;34.23;104086.59;4968726;28;21425;-76
2023/02/07 11:27:12;;;;;;;4.55;3.15;;;;;;;5.91;33.00;104077.25;4969894;28;20696;-76
2023/02/07 11:29:59;;;;;;;4.80;2.85;;;;;;;5.89;32.80;104082.38;4969597;28;20549;-76
2023/02/07 11:32:26;;;;;;;6.15;3.25;;;;;;;5.95;33.06;104077.38;4959804;28;20455;-76
2023/02/07 11:34:57;;;;;;;7.63;3.53;;;;;;;5.09;33.76;104092.72;4960197;28;20046;-77